createdAt,value
2019-04-26T00:00:47.277Z,27.63
2019-04-26T00:03:20.619Z,28.30
2019-04-26T00:05:49.315Z,27.73
2019-04-26T00:08:18.021Z,27.17
2019-04-26T00:11:06.163Z,27.87
2019-04-26T00:13:39.438Z,26.57
2019-04-26T00:16:10.139Z,27.23
2019-04-26T00:18:39.546Z,28.60
2019-04-26T00:21:08.272Z,28.40
2019-04-26T00:23:36.975Z,27.50
2019-04-26T00:26:06.022Z,28.70
2019-04-26T00:28:34.755Z,29.00
2019-04-26T00:31:03.518Z,28.50
2019-04-26T00:33:32.211Z,28.27
2019-04-26T00:36:00.856Z,28.70
2019-04-26T00:38:29.551Z,30.50
2019-04-26T00:40:59.331Z,29.33
2019-04-26T00:43:28.527Z,30.07
2019-04-26T00:45:58.629Z,29.77
2019-04-26T00:48:29.237Z,28.93
2019-04-26T00:50:58.431Z,27.90
2019-04-26T00:53:29.331Z,28.27
2019-04-26T00:55:59.023Z,28.87
2019-04-26T00:58:29.029Z,30.10
2019-04-26T01:00:57.799Z,29.03
2019-04-26T01:03:26.503Z,29.20
2019-04-26T01:06:00.193Z,28.73
2019-04-26T01:08:27.882Z,29.67
2019-04-26T01:10:56.581Z,29.43
2019-04-26T01:13:26.116Z,29.27
2019-04-26T01:15:54.947Z,29.03
2019-04-26T01:18:24.441Z,28.43
2019-04-26T01:20:56.155Z,29.57
2019-04-26T01:23:28.459Z,29.63
2019-04-26T01:26:03.127Z,27.93
2019-04-26T01:28:54.799Z,31.20
2019-04-26T01:31:25.963Z,29.50
2019-04-26T01:33:54.709Z,28.87
2019-04-26T01:36:26.466Z,28.43
2019-04-26T01:38:58.132Z,31.93
2019-04-26T01:41:37.106Z,29.03
2019-04-26T01:44:07.843Z,28.53
2019-04-26T01:46:46.372Z,31.07
2019-04-26T01:49:18.007Z,31.67
2019-04-26T01:51:49.656Z,30.73
2019-04-26T01:54:22.578Z,31.13
2019-04-26T01:56:54.827Z,31.43
2019-04-26T01:59:25.265Z,30.20
2019-04-26T02:01:55.731Z,29.23
2019-04-26T02:04:27.754Z,29.50
2019-04-26T02:06:56.614Z,29.77
2019-04-26T02:09:26.342Z,27.97
2019-04-26T02:11:55.107Z,31.23
2019-04-26T02:14:25.211Z,29.73
2019-04-26T02:16:54.195Z,31.40
2019-04-26T02:19:24.306Z,30.57
2019-04-26T02:21:58.151Z,28.87
2019-04-26T02:24:30.109Z,32.63
2019-04-26T02:27:01.559Z,33.90
2019-04-26T02:29:30.432Z,31.77
2019-04-26T02:32:02.488Z,31.30
2019-04-26T02:34:35.264Z,31.37
2019-04-26T02:37:07.331Z,30.30
2019-04-26T02:39:39.701Z,30.07
2019-04-26T02:42:11.553Z,30.30
2019-04-26T02:44:50.326Z,30.77
2019-04-26T02:47:39.711Z,30.23
2019-04-26T02:50:16.029Z,29.50
2019-04-26T02:53:02.799Z,30.33
2019-04-26T02:55:42.437Z,31.67
2019-04-26T02:58:11.719Z,32.20
2019-04-26T03:00:41.022Z,33.37
2019-04-26T03:03:10.915Z,31.83
2019-04-26T03:05:42.243Z,31.67
2019-04-26T03:08:13.868Z,34.80
2019-04-26T03:10:45.252Z,31.37
2019-04-26T03:13:19.112Z,31.83
2019-04-26T03:16:01.449Z,30.50
2019-04-26T03:18:41.541Z,31.33
2019-04-26T03:21:32.685Z,34.10
2019-04-26T03:24:25.640Z,32.80
2019-04-26T03:27:13.980Z,34.07
2019-04-26T03:30:19.234Z,35.07
2019-04-26T03:32:50.777Z,37.53
2019-04-26T03:35:34.666Z,35.13
2019-04-26T03:38:36.193Z,35.20
2019-04-26T03:41:24.851Z,36.30
2019-04-26T03:44:05.322Z,35.70
2019-04-26T03:46:41.182Z,33.07
2019-04-26T03:49:38.054Z,33.93
2019-04-26T03:52:28.752Z,34.70
2019-04-26T03:55:00.384Z,33.23
2019-04-26T03:57:38.335Z,33.97
2019-04-26T04:00:16.866Z,32.03
2019-04-26T04:03:05.029Z,33.00
2019-04-26T04:05:53.505Z,30.87
2019-04-26T04:08:25.159Z,29.57
2019-04-26T04:10:56.884Z,31.07
2019-04-26T04:13:40.715Z,26.53
2019-04-26T04:16:17.792Z,28.40
2019-04-26T04:18:49.535Z,27.97
2019-04-26T04:21:34.400Z,26.27
2019-04-26T04:24:08.968Z,27.00
2019-04-26T04:26:58.478Z,25.87
2019-04-26T04:29:55.266Z,26.17
2019-04-26T04:32:53.388Z,26.07
2019-04-26T04:35:24.707Z,25.50
2019-04-26T04:38:09.467Z,26.33
2019-04-26T04:41:01.980Z,26.17
2019-04-26T04:43:35.296Z,25.13
2019-04-26T04:46:32.333Z,26.50
2019-04-26T04:52:27.921Z,25.60
2019-04-26T04:55:17.707Z,24.73
2019-04-26T04:57:50.266Z,24.57
2019-04-26T05:00:29.512Z,25.27
2019-04-26T05:03:26.747Z,24.90
2019-04-26T05:06:20.396Z,23.97
2019-04-26T05:09:10.079Z,24.80
2019-04-26T05:12:05.731Z,23.47
2019-04-26T05:15:00.681Z,22.53
2019-04-26T05:17:56.687Z,22.47
2019-04-26T05:20:31.111Z,21.23
2019-04-26T05:23:35.084Z,20.17
2019-04-26T05:26:29.216Z,20.92
2019-04-26T05:29:17.907Z,24.00
2019-04-26T05:32:07.868Z,25.37
2019-04-26T05:34:56.882Z,25.00
2019-04-26T05:38:02.412Z,25.82
2019-04-26T05:41:03.145Z,25.43
2019-04-26T05:43:51.844Z,26.02
2019-04-26T05:46:52.107Z,25.80
2019-04-26T05:49:47.787Z,25.75
2019-04-26T05:52:55.195Z,24.37
2019-04-26T05:55:58.076Z,24.15
2019-04-26T05:58:48.183Z,23.15
2019-04-26T06:01:27.204Z,21.93
2019-04-26T06:04:28.957Z,21.93
2019-04-26T06:07:08.183Z,21.93
2019-04-26T06:09:47.240Z,21.80
2019-04-26T06:12:32.408Z,20.70
2019-04-26T06:15:33.071Z,21.48
2019-04-26T06:18:15.303Z,21.33
2019-04-26T06:21:05.179Z,22.30
2019-04-26T06:23:57.925Z,21.52
2019-04-26T06:29:45.955Z,20.92
2019-04-26T06:32:20.488Z,21.68
2019-04-26T06:34:59.871Z,20.12
2019-04-26T06:37:55.700Z,20.45
2019-04-26T06:40:43.775Z,20.48
2019-04-26T06:43:19.751Z,20.57
2019-04-26T06:46:11.623Z,19.80
2019-04-26T06:49:03.419Z,18.87
2019-04-26T06:52:05.173Z,18.77
2019-04-26T06:54:36.800Z,18.12
2019-04-26T06:57:24.655Z,18.00
2019-04-26T07:00:14.603Z,19.10
2019-04-26T07:02:58.934Z,18.30
2019-04-26T07:05:39.834Z,18.52
2019-04-26T07:08:26.860Z,18.27
2019-04-26T07:11:16.640Z,18.15
2019-04-26T07:14:07.600Z,17.40
2019-04-26T07:16:55.851Z,18.23
2019-04-26T07:20:03.111Z,17.17
2019-04-26T07:23:02.049Z,17.25
2019-04-26T07:26:07.976Z,17.90
2019-04-26T07:29:06.943Z,17.32
2019-04-26T07:31:50.879Z,16.93
2019-04-26T07:34:26.837Z,16.55
2019-04-26T07:37:32.019Z,16.60
2019-04-26T07:40:11.776Z,16.23
2019-04-26T07:43:30.307Z,16.67
2019-04-26T07:46:27.511Z,17.20
2019-04-26T07:49:32.573Z,16.12
2019-04-26T07:52:23.729Z,16.10
2019-04-26T07:55:28.953Z,16.48
2019-04-26T07:58:19.854Z,16.32
2019-04-26T08:00:55.689Z,15.00
2019-04-26T08:03:37.599Z,15.83
2019-04-26T08:06:11.999Z,15.35
2019-04-26T08:09:01.931Z,14.90
2019-04-26T08:11:42.544Z,14.95
2019-04-26T08:14:20.059Z,15.03
2019-04-26T08:17:10.407Z,15.65
2019-04-26T08:20:10.701Z,15.80
2019-04-26T08:22:41.119Z,15.93
2019-04-26T08:25:12.459Z,16.70
2019-04-26T08:27:42.803Z,17.70
2019-04-26T08:30:19.120Z,17.73
2019-04-26T08:32:52.917Z,17.85
2019-04-26T08:35:25.574Z,18.60
2019-04-26T08:37:58.183Z,19.82
2019-04-26T08:40:31.031Z,18.90
2019-04-26T08:43:10.876Z,19.87
2019-04-26T08:46:03.129Z,19.37
2019-04-26T08:48:49.281Z,18.98
2019-04-26T08:51:21.844Z,19.02
2019-04-26T08:53:53.686Z,19.20
2019-04-26T08:56:34.419Z,19.90
2019-04-26T08:59:06.732Z,18.55
2019-04-26T09:01:45.540Z,18.40
2019-04-26T09:04:16.662Z,16.97
2019-04-26T09:07:01.905Z,17.62
2019-04-26T09:09:33.543Z,17.98
2019-04-26T09:12:08.404Z,17.52
2019-04-26T09:14:37.407Z,17.67
2019-04-26T09:17:07.091Z,18.12
2019-04-26T09:19:35.795Z,19.10
2019-04-26T09:22:13.357Z,16.95
2019-04-26T09:24:41.123Z,17.82
2019-04-26T09:27:11.495Z,17.90
2019-04-26T09:29:44.804Z,17.45
2019-04-26T09:32:18.161Z,18.15
2019-04-26T09:34:47.415Z,17.95
2019-04-26T09:37:16.383Z,17.40
2019-04-26T09:39:45.100Z,18.00
2019-04-26T09:42:24.408Z,17.15
2019-04-26T09:44:57.519Z,18.23
2019-04-26T09:47:36.851Z,17.42
2019-04-26T09:50:17.102Z,18.75
2019-04-26T09:52:47.619Z,18.17
2019-04-26T09:55:16.259Z,16.95
2019-04-26T09:57:44.961Z,17.35
2019-04-26T10:00:17.315Z,16.55
2019-04-26T10:02:46.094Z,16.42
2019-04-26T10:05:17.581Z,15.38
2019-04-26T10:07:45.256Z,15.13
2019-04-26T10:10:35.206Z,15.98
2019-04-26T10:13:08.388Z,15.75
2019-04-26T10:15:58.265Z,15.72
2019-04-26T10:18:26.008Z,14.83
2019-04-26T10:20:54.802Z,14.15
2019-04-26T10:23:23.513Z,15.30
2019-04-26T10:25:53.570Z,15.43
2019-04-26T10:28:22.334Z,14.15
2019-04-26T10:30:51.303Z,13.85
2019-04-26T10:33:20.019Z,15.18
2019-04-26T10:35:48.719Z,13.72
2019-04-26T10:38:19.331Z,13.30
2019-04-26T10:40:47.771Z,13.70
2019-04-26T10:43:17.411Z,13.75
2019-04-26T10:45:53.577Z,13.70
2019-04-26T10:48:16.678Z,13.38
2019-04-26T10:50:45.386Z,12.68
2019-04-26T10:53:21.537Z,13.08
2019-04-26T10:55:51.880Z,14.13
2019-04-26T10:58:31.921Z,12.98
2019-04-26T11:01:03.484Z,12.82
2019-04-26T11:03:34.889Z,13.05
2019-04-26T11:06:02.620Z,12.30
2019-04-26T11:08:31.320Z,12.47
2019-04-26T11:11:00.035Z,12.53
2019-04-26T11:13:28.731Z,12.82
2019-04-26T11:15:57.444Z,12.03
2019-04-26T11:18:27.730Z,12.10
2019-04-26T11:20:56.560Z,12.35
2019-04-26T11:23:25.253Z,12.95
2019-04-26T11:25:53.953Z,11.25
2019-04-26T11:28:22.957Z,12.68
2019-04-26T11:30:52.308Z,12.37
2019-04-26T11:33:22.135Z,12.80
2019-04-26T11:35:50.847Z,12.23
2019-04-26T11:38:21.718Z,11.83
2019-04-26T11:41:05.027Z,12.03
2019-04-26T11:43:21.100Z,11.43
2019-04-26T11:45:50.493Z,10.93
2019-04-26T11:48:19.391Z,11.93
2019-04-26T11:50:48.317Z,10.18
2019-04-26T11:53:18.458Z,10.50
2019-04-26T11:55:47.163Z,10.45
2019-04-26T11:58:17.926Z,10.30
2019-04-26T12:00:53.668Z,10.45
2019-04-26T12:03:24.875Z,10.78
2019-04-26T12:05:57.332Z,10.63
2019-04-26T12:08:43.647Z,11.35
2019-04-26T12:11:18.651Z,11.10
2019-04-26T12:13:42.976Z,10.88
2019-04-26T12:16:14.593Z,10.20
2019-04-26T12:18:44.243Z,10.38
2019-04-26T12:21:12.389Z,10.48
2019-04-26T12:23:41.104Z,9.38
2019-04-26T12:26:09.872Z,10.08
2019-04-26T12:28:40.026Z,10.93
2019-04-26T12:31:08.945Z,10.58
2019-04-26T12:33:39.108Z,10.80
2019-04-26T12:36:09.510Z,9.95
2019-04-26T12:38:38.844Z,9.90
2019-04-26T12:41:07.562Z,10.30
2019-04-26T12:43:36.269Z,9.93
2019-04-26T12:46:15.521Z,9.75
2019-04-26T12:48:45.966Z,9.53
2019-04-26T12:51:15.240Z,9.53
2019-04-26T12:53:43.956Z,9.95
2019-04-26T12:56:12.651Z,9.73
2019-04-26T12:58:41.347Z,9.70
2019-04-26T13:01:12.252Z,9.38
2019-04-26T13:03:44.544Z,10.23
2019-04-26T13:06:13.331Z,10.15
2019-04-26T13:08:42.100Z,10.53
2019-04-26T13:11:16.186Z,9.90
2019-04-26T13:13:46.560Z,9.53
2019-04-26T13:16:21.511Z,9.20
2019-04-26T13:18:50.596Z,9.30
2019-04-26T13:21:19.292Z,8.73
2019-04-26T13:23:48.250Z,9.18
2019-04-26T13:26:17.098Z,9.68
2019-04-26T13:28:45.811Z,9.08
2019-04-26T13:31:14.512Z,8.73
2019-04-26T13:33:43.220Z,8.95
2019-04-26T13:36:11.915Z,9.48
2019-04-26T13:38:43.629Z,8.93
2019-04-26T13:41:11.028Z,8.83
2019-04-26T13:43:39.724Z,8.65
2019-04-26T13:46:21.993Z,8.60
2019-04-26T13:48:52.343Z,9.40
2019-04-26T13:51:22.683Z,8.98
2019-04-26T13:53:54.192Z,9.03
2019-04-26T13:56:21.745Z,9.15
2019-04-26T13:59:09.784Z,8.85
2019-04-26T14:01:38.492Z,8.63
2019-04-26T14:04:08.918Z,8.53
2019-04-26T14:06:40.640Z,9.05
2019-04-26T14:09:10.535Z,9.40
2019-04-26T14:11:39.237Z,8.30
2019-04-26T14:14:08.011Z,8.95
2019-04-26T14:16:36.711Z,8.95
2019-04-26T14:19:05.688Z,8.90
2019-04-26T14:21:34.843Z,8.63
2019-04-26T14:24:19.743Z,9.08
2019-04-26T14:26:52.659Z,9.43
2019-04-26T14:29:21.427Z,8.93
2019-04-26T14:31:51.376Z,9.10
2019-04-26T14:34:20.478Z,8.65
2019-04-26T14:36:49.188Z,9.43
2019-04-26T14:39:20.919Z,9.33
2019-04-26T14:41:48.453Z,9.90
2019-04-26T14:44:17.321Z,9.03
2019-04-26T14:46:49.012Z,9.73
2019-04-26T14:49:19.255Z,9.38
2019-04-26T14:51:51.198Z,9.33
2019-04-26T14:54:17.973Z,8.63
2019-04-26T14:56:52.414Z,9.35
2019-04-26T14:59:18.659Z,9.00
2019-04-26T15:01:54.911Z,9.33
2019-04-26T15:04:37.305Z,9.20
2019-04-26T15:07:06.715Z,8.78
2019-04-26T15:09:36.574Z,8.55
2019-04-26T15:12:07.638Z,9.23
2019-04-26T15:14:35.835Z,9.23
2019-04-26T15:17:04.576Z,8.75
2019-04-26T15:19:35.108Z,9.50
2019-04-26T15:22:10.097Z,9.08
2019-04-26T15:24:35.155Z,9.78
2019-04-26T15:27:04.335Z,8.88
2019-04-26T15:29:33.435Z,8.93
2019-04-26T15:32:04.840Z,9.15
2019-04-26T15:34:32.493Z,9.15
2019-04-26T15:37:02.868Z,9.35
2019-04-26T15:39:50.291Z,9.78
2019-04-26T15:42:23.771Z,9.33
2019-04-26T15:45:01.800Z,9.75
2019-04-26T15:47:32.047Z,9.05
2019-04-26T15:50:03.916Z,9.88
2019-04-26T15:52:33.991Z,9.93
2019-04-26T15:55:05.777Z,9.10
2019-04-26T15:57:34.681Z,9.33
2019-04-26T16:00:04.913Z,10.78
2019-04-26T16:02:33.623Z,9.33
2019-04-26T16:05:02.686Z,10.03
2019-04-26T16:07:34.226Z,9.78
2019-04-26T16:10:01.794Z,8.88
2019-04-26T16:12:32.031Z,9.50
2019-04-26T16:15:02.377Z,9.93
2019-04-26T16:17:31.200Z,10.05
2019-04-26T16:20:01.619Z,9.60
2019-04-26T16:22:31.653Z,9.60
2019-04-26T16:25:04.009Z,10.23
2019-04-26T16:27:34.147Z,8.98
2019-04-26T16:30:19.967Z,9.23
2019-04-26T16:32:52.617Z,10.03
2019-04-26T16:35:25.378Z,10.25
2019-04-26T16:37:52.095Z,9.20
2019-04-26T16:40:21.105Z,9.73
2019-04-26T16:42:56.991Z,9.43
2019-04-26T16:45:20.155Z,9.85
2019-04-26T16:47:48.974Z,9.78
2019-04-26T16:50:23.993Z,10.10
2019-04-26T16:52:48.192Z,9.68
2019-04-26T16:55:20.807Z,9.28
2019-04-26T16:57:54.989Z,9.53
2019-04-26T17:00:17.607Z,9.75
2019-04-26T17:02:46.294Z,9.63
2019-04-26T17:05:23.724Z,8.50
2019-04-26T17:07:45.949Z,8.75
2019-04-26T17:10:16.511Z,9.28
2019-04-26T17:12:46.219Z,8.50
2019-04-26T17:15:17.459Z,9.45
2019-04-26T17:17:50.182Z,9.43
2019-04-26T17:20:17.087Z,8.45
2019-04-26T17:23:05.652Z,8.60
2019-04-26T17:25:35.991Z,8.58
2019-04-26T17:28:04.694Z,9.38
2019-04-26T17:30:40.827Z,8.58
2019-04-26T17:33:03.818Z,9.63
2019-04-26T17:35:32.825Z,8.98
2019-04-26T17:38:05.096Z,8.95
2019-04-26T17:40:36.700Z,8.90
2019-04-26T17:43:05.417Z,8.83
2019-04-26T17:45:36.328Z,9.58
2019-04-26T17:48:06.501Z,9.18
2019-04-26T17:50:35.401Z,9.90
2019-04-26T17:53:06.533Z,10.15
2019-04-26T17:55:35.520Z,9.50
2019-04-26T17:58:12.462Z,10.38
2019-04-26T18:00:45.715Z,9.35
2019-04-26T18:03:13.214Z,9.88
2019-04-26T18:05:55.826Z,10.82
2019-04-26T18:08:32.795Z,9.50
2019-04-26T18:10:42.568Z,10.98
2019-04-26T18:13:16.388Z,9.90
2019-04-26T18:15:46.947Z,10.38
2019-04-26T18:18:14.368Z,10.90
2019-04-26T18:21:00.805Z,10.77
2019-04-26T18:23:30.563Z,10.13
2019-04-26T18:25:59.391Z,11.08
2019-04-26T18:28:28.091Z,10.55
2019-04-26T18:30:56.953Z,11.10
2019-04-26T18:33:26.118Z,11.45
2019-04-26T18:35:57.424Z,11.83
2019-04-26T18:38:25.263Z,12.00
2019-04-26T18:41:00.796Z,12.33
2019-04-26T18:43:24.535Z,11.43
2019-04-26T18:45:58.649Z,12.90
2019-04-26T18:48:25.241Z,11.90
2019-04-26T18:50:55.376Z,12.00
2019-04-26T18:53:30.544Z,12.73
2019-04-26T18:55:59.326Z,13.20
2019-04-26T18:58:30.305Z,12.43
2019-04-26T19:01:01.749Z,12.37
2019-04-26T19:03:49.476Z,12.37
2019-04-26T19:06:27.411Z,12.10
2019-04-26T19:08:52.239Z,12.17
2019-04-26T19:11:18.995Z,13.58
2019-04-26T19:14:06.383Z,13.17
2019-04-26T19:16:46.415Z,12.70
2019-04-26T19:19:24.250Z,14.03
2019-04-26T19:22:03.296Z,13.90
2019-04-26T19:24:31.424Z,13.80
2019-04-26T19:27:01.742Z,13.50
2019-04-26T19:29:34.316Z,14.43
2019-04-26T19:32:04.105Z,13.23
2019-04-26T19:34:31.333Z,13.43
2019-04-26T19:37:01.482Z,12.77
2019-04-26T19:39:33.308Z,13.30
2019-04-26T19:42:02.439Z,13.25
2019-04-26T19:44:31.678Z,13.30
2019-04-26T19:47:20.351Z,12.00
2019-04-26T19:50:09.413Z,12.20
2019-04-26T19:52:42.921Z,12.87
2019-04-26T19:55:16.076Z,12.93
2019-04-26T19:58:04.815Z,13.40
2019-04-26T20:00:33.583Z,12.40
2019-04-26T20:03:02.307Z,12.70
2019-04-26T20:05:31.997Z,13.30
2019-04-26T20:08:02.981Z,12.97
2019-04-26T20:10:34.579Z,13.07
2019-04-26T20:13:02.596Z,12.97
2019-04-26T20:15:31.887Z,13.47
2019-04-26T20:18:03.745Z,13.83
2019-04-26T20:20:34.581Z,12.33
2019-04-26T20:23:05.887Z,12.33
2019-04-26T20:25:31.695Z,14.23
2019-04-26T20:28:02.583Z,12.97
2019-04-26T20:30:44.224Z,12.83
2019-04-26T20:33:12.936Z,12.90
2019-04-26T20:35:42.404Z,12.03
2019-04-26T20:38:11.881Z,12.57
2019-04-26T20:40:43.521Z,12.47
2019-04-26T20:43:23.834Z,13.13
2019-04-26T20:45:42.673Z,12.93
2019-04-26T20:48:11.793Z,12.53
2019-04-26T20:50:41.326Z,12.53
2019-04-26T20:53:11.828Z,13.20
2019-04-26T20:55:40.379Z,12.63
2019-04-26T20:58:09.176Z,11.87
2019-04-26T21:00:37.972Z,12.53
2019-04-26T21:03:19.946Z,11.57
2019-04-26T21:05:45.713Z,13.20
2019-04-26T21:08:07.562Z,13.70
2019-04-26T21:10:36.266Z,12.23
2019-04-26T21:13:05.333Z,12.90
2019-04-26T21:15:35.941Z,12.97
2019-04-26T21:18:04.454Z,12.33
2019-04-26T21:20:36.398Z,12.37
2019-04-26T21:23:05.319Z,12.10
2019-04-26T21:25:52.446Z,12.60
2019-04-26T21:28:38.107Z,11.70
2019-04-26T21:31:07.479Z,12.60
2019-04-26T21:33:44.775Z,13.07
2019-04-26T21:36:40.388Z,12.77
2019-04-26T21:39:24.277Z,13.50
2019-04-26T21:41:54.628Z,13.70
2019-04-26T21:44:23.394Z,13.87
2019-04-26T21:46:56.177Z,13.47
2019-04-26T21:49:24.399Z,14.60
2019-04-26T21:51:56.223Z,14.27
2019-04-26T21:54:25.217Z,14.53
2019-04-26T21:56:56.793Z,14.43
2019-04-26T21:59:25.491Z,13.63
2019-04-26T22:01:58.963Z,14.33
2019-04-26T22:04:28.783Z,14.33
2019-04-26T22:06:55.658Z,14.60
2019-04-26T22:09:33.307Z,14.73
2019-04-26T22:11:59.454Z,14.07
2019-04-26T22:14:35.791Z,14.10
2019-04-26T22:17:24.185Z,15.07
2019-04-26T22:20:14.432Z,15.70
2019-04-26T22:22:44.306Z,14.70
2019-04-26T22:25:13.879Z,15.70
2019-04-26T22:27:43.709Z,16.20
2019-04-26T22:30:14.735Z,16.90
2019-04-26T22:32:43.426Z,16.33
2019-04-26T22:35:13.483Z,17.23
2019-04-26T22:37:45.540Z,16.53
2019-04-26T22:40:17.020Z,16.63
2019-04-26T22:42:44.989Z,16.07
2019-04-26T22:45:15.631Z,16.37
2019-04-26T22:47:58.025Z,16.87
2019-04-26T22:50:26.792Z,16.57
2019-04-26T22:52:55.495Z,17.60
2019-04-26T22:55:27.405Z,17.83
2019-04-26T22:57:54.651Z,17.37
2019-04-26T23:00:29.290Z,16.70
2019-04-26T23:02:58.223Z,17.60
2019-04-26T23:05:26.059Z,17.40
2019-04-26T23:07:58.896Z,17.57
2019-04-26T23:10:31.189Z,17.53
2019-04-26T23:13:17.919Z,18.20
2019-04-26T23:15:48.264Z,17.20
2019-04-26T23:18:38.721Z,17.37
2019-04-26T23:21:17.469Z,18.23
2019-04-26T23:23:46.162Z,18.27
2019-04-26T23:26:14.906Z,17.83
2019-04-26T23:28:43.599Z,18.53
2019-04-26T23:31:13.391Z,17.93
2019-04-26T23:33:42.948Z,17.30
2019-04-26T23:36:13.481Z,18.33
2019-04-26T23:38:43.507Z,18.83
2019-04-26T23:41:14.194Z,19.10
2019-04-26T23:43:43.023Z,18.40
2019-04-26T23:46:14.351Z,18.07
2019-04-26T23:48:42.693Z,17.73
2019-04-26T23:51:12.431Z,18.83
2019-04-26T23:53:42.804Z,18.50
2019-04-26T23:56:16.248Z,19.53
2019-04-26T23:58:44.162Z,19.00
